KLAF/LAF METAR and TAF weather

Enter ICAO airport designator
Station Type Date Time Source
KLAF METAR 2019/06/26 20:10 UTC NOAA

KLAF 262010Z 20003KT 10SM FEW050 FEW060 31/20 A3006 RMK AO2 T03060200


Station Type Date Time Source
KLAF Decoded METAR 2019/06/26 20:10 UTC NOAA

LAFAYETTE PURDUE UNIV AIRPORT , IN, United States (KLAF) 40-25N 86-57W 182M
Jun 26, 2019 - 04:10 PM EDT / 2019.06.26 2010 UTC
Wind: from the SSW (200 degrees) at 3 MPH (3 KT):0
Visibility: 10 mile(s):0
Sky conditions: mostly clear
Temperature: 87.1 F (30.6 C)
Dew Point: 68.0 F (20.0 C)
Relative Humidity: 53%
Pressure (altimeter): 30.06 in. Hg (1017 hPa)
ob: KLAF 262010Z 20003KT 10SM FEW050 FEW060 31/20 A3006 RMK AO2 T03060200
cycle: 20

Station Type Date Time Source
KLAF TAF 2019/06/26 18:51 UTC NOAA

TAF KLAF 261849Z 2618/2718 24009KT P6SM SCT050
FM270100 VRB04KT P6SM BKN040
FM270700 00000KT P6SM SCT250

Example: see airport list